createdAt,value
2017-08-05T00:00:03.987Z,3.53
2017-08-05T00:00:08.247Z,3.65
2017-08-05T00:00:12.522Z,3.45
2017-08-05T00:00:16.778Z,3.40
2017-08-05T00:00:21.039Z,3.40
2017-08-05T00:00:25.285Z,3.60
2017-08-05T00:00:29.565Z,3.65
2017-08-05T00:00:33.856Z,3.90
2017-08-05T00:00:38.179Z,3.85
2017-08-05T00:00:42.424Z,3.95
2017-08-05T00:00:47.405Z,4.03
2017-08-05T00:00:51.663Z,4.07
2017-08-05T00:00:55.909Z,3.65
2017-08-05T00:01:00.181Z,3.35
2017-08-05T00:01:04.420Z,3.30
2017-08-05T00:01:09.414Z,3.10
2017-08-05T00:01:13.742Z,3.10
2017-08-05T00:01:18.774Z,3.20
2017-08-05T00:01:23.787Z,3.20
2017-08-05T00:01:28.836Z,3.30
2017-08-05T00:01:33.661Z,3.17
2017-08-05T00:01:37.882Z,3.00
2017-08-05T00:01:42.122Z,3.00
2017-08-05T00:01:47.148Z,3.30
2017-08-05T00:01:51.411Z,3.35
2017-08-05T00:01:55.647Z,3.70
2017-08-05T00:01:59.871Z,3.80
2017-08-05T00:02:04.106Z,4.10
2017-08-05T00:02:08.373Z,4.10
2017-08-05T00:02:12.597Z,4.30
2017-08-05T00:02:16.847Z,4.40
2017-08-05T00:02:21.101Z,4.40
2017-08-05T00:02:25.363Z,4.30
2017-08-05T00:02:29.597Z,4.55
2017-08-05T00:02:33.841Z,4.60
2017-08-05T00:02:38.072Z,4.85
2017-08-05T00:02:42.318Z,4.50
2017-08-05T00:02:47.355Z,4.20
2017-08-05T00:02:51.601Z,4.70
2017-08-05T00:02:55.866Z,4.55
2017-08-05T00:03:00.077Z,4.50
2017-08-05T00:03:04.389Z,4.67
2017-08-05T00:03:08.622Z,4.90
2017-08-05T00:03:12.871Z,4.85
2017-08-05T00:03:17.109Z,4.77
2017-08-05T00:03:21.354Z,5.55
2017-08-05T00:03:25.590Z,5.50
2017-08-05T00:03:29.825Z,5.20
2017-08-05T00:03:34.092Z,5.53
2017-08-05T00:03:39.171Z,5.95
2017-08-05T00:03:44.169Z,6.13
2017-08-05T00:03:48.422Z,6.07
2017-08-05T00:03:52.670Z,5.40
2017-08-05T00:03:56.897Z,5.40
2017-08-05T00:04:01.145Z,5.40
2017-08-05T00:04:05.434Z,4.95
2017-08-05T00:04:09.683Z,5.05
2017-08-05T00:04:14.694Z,5.40
2017-08-05T00:04:19.767Z,5.20
2017-08-05T00:04:23.998Z,4.50
2017-08-05T00:04:28.233Z,4.30
2017-08-05T00:04:32.501Z,4.00
2017-08-05T00:04:36.773Z,3.85
2017-08-05T00:04:41.029Z,3.47
2017-08-05T00:04:46.090Z,3.50
2017-08-05T00:04:50.309Z,3.60
2017-08-05T00:04:54.539Z,3.60
2017-08-05T00:04:59.547Z,3.60
2017-08-05T00:05:03.824Z,4.23
2017-08-05T00:05:08.095Z,5.20
2017-08-05T00:05:12.337Z,4.90
2017-08-05T00:05:16.570Z,4.75
2017-08-05T00:05:21.014Z,4.90
2017-08-05T00:05:25.263Z,5.25
2017-08-05T00:05:30.283Z,5.40
2017-08-05T00:05:35.306Z,6.50
2017-08-05T00:05:40.322Z,6.40
2017-08-05T00:05:45.333Z,6.40
2017-08-05T00:05:50.361Z,6.57
2017-08-05T00:05:54.885Z,6.65
2017-08-05T00:05:59.133Z,6.70
2017-08-05T00:06:03.392Z,6.25
2017-08-05T00:06:07.621Z,4.97
2017-08-05T00:06:11.861Z,5.20
2017-08-05T00:06:16.877Z,5.15
2017-08-05T00:06:21.901Z,5.33
2017-08-05T00:06:26.182Z,5.30
2017-08-05T00:06:30.427Z,6.95
2017-08-05T00:06:34.730Z,6.20
2017-08-05T00:06:39.005Z,6.20
2017-08-05T00:06:44.035Z,6.20
2017-08-05T00:06:48.268Z,6.10
2017-08-05T00:06:52.509Z,5.87
2017-08-05T00:06:57.613Z,5.80
2017-08-05T00:07:01.853Z,5.97
2017-08-05T00:07:06.087Z,5.95
2017-08-05T00:07:10.338Z,5.65
2017-08-05T00:07:15.351Z,5.73
2017-08-05T00:07:20.383Z,5.53
2017-08-05T00:07:24.673Z,5.20
2017-08-05T00:07:28.897Z,3.40
2017-08-05T00:07:33.125Z,3.20
2017-08-05T00:07:37.373Z,3.20
2017-08-05T00:07:41.669Z,3.05
2017-08-05T00:07:46.702Z,2.90
2017-08-05T00:07:50.954Z,3.10
2017-08-05T00:07:55.999Z,3.20
2017-08-05T00:08:00.232Z,3.23
2017-08-05T00:08:04.494Z,3.40
2017-08-05T00:08:08.757Z,3.40
2017-08-05T00:08:13.024Z,3.35
2017-08-05T00:08:17.285Z,3.83
2017-08-05T00:08:21.514Z,4.05
2017-08-05T00:08:26.576Z,4.25
2017-08-05T00:08:30.819Z,4.10
2017-08-05T00:08:35.086Z,4.10
2017-08-05T00:08:39.333Z,4.10
2017-08-05T00:08:44.357Z,4.30
2017-08-05T00:08:49.361Z,4.17
2017-08-05T00:08:53.721Z,4.10
2017-08-05T00:08:57.963Z,4.00
2017-08-05T00:09:02.215Z,3.83
2017-08-05T00:09:06.442Z,3.80
2017-08-05T00:09:11.484Z,3.65
2017-08-05T00:09:16.493Z,3.40
2017-08-05T00:09:21.523Z,2.87
2017-08-05T00:09:26.527Z,2.67
2017-08-05T00:09:30.753Z,2.83
2017-08-05T00:09:35.019Z,2.70
2017-08-05T00:09:39.793Z,2.85
2017-08-05T00:09:44.033Z,2.90
2017-08-05T00:09:48.292Z,2.95
2017-08-05T00:09:52.535Z,2.80
2017-08-05T00:09:57.555Z,2.80
2017-08-05T00:10:01.783Z,2.77
2017-08-05T00:10:06.021Z,3.07
2017-08-05T00:10:10.271Z,3.35
2017-08-05T00:10:15.275Z,3.50
2017-08-05T00:10:19.501Z,3.70
2017-08-05T00:10:23.792Z,3.67
2017-08-05T00:10:28.793Z,3.60
2017-08-05T00:10:33.821Z,3.97
2017-08-05T00:10:38.857Z,3.97
2017-08-05T00:10:43.865Z,3.70
2017-08-05T00:10:48.115Z,4.00
2017-08-05T00:10:52.338Z,4.00
2017-08-05T00:10:56.592Z,3.90
2017-08-05T00:11:00.839Z,3.90
2017-08-05T00:11:05.124Z,4.20
2017-08-05T00:11:09.369Z,4.10
2017-08-05T00:11:13.597Z,4.70
2017-08-05T00:11:17.855Z,4.60
2017-08-05T00:11:22.135Z,4.75
2017-08-05T00:11:26.435Z,4.75
2017-08-05T00:11:30.677Z,4.57
2017-08-05T00:11:34.918Z,4.40
2017-08-05T00:11:39.223Z,4.40
2017-08-05T00:11:43.480Z,4.40
2017-08-05T00:11:47.729Z,4.03
2017-08-05T00:11:51.952Z,4.10
2017-08-05T00:11:56.957Z,4.20
2017-08-05T00:12:01.198Z,4.60
2017-08-05T00:12:05.459Z,4.17
2017-08-05T00:12:09.693Z,4.30
2017-08-05T00:12:13.958Z,3.35
2017-08-05T00:12:18.185Z,3.50
2017-08-05T00:12:23.196Z,3.73
2017-08-05T00:12:28.205Z,3.77
2017-08-05T00:12:32.471Z,3.93
2017-08-05T00:12:36.707Z,3.95
2017-08-05T00:12:41.706Z,4.10
2017-08-05T00:12:45.941Z,4.23
2017-08-05T00:12:50.213Z,4.30
2017-08-05T00:12:54.467Z,4.23
2017-08-05T00:12:58.741Z,4.10
2017-08-05T00:13:03.752Z,4.20
2017-08-05T00:13:08.789Z,3.77
2017-08-05T00:13:13.031Z,3.67
2017-08-05T00:13:17.285Z,3.60
2017-08-05T00:13:21.524Z,3.45
2017-08-05T00:13:25.803Z,3.50
2017-08-05T00:13:30.113Z,3.45
2017-08-05T00:13:34.357Z,3.40
2017-08-05T00:13:38.601Z,3.40
2017-08-05T00:13:42.825Z,3.50
2017-08-05T00:13:47.069Z,4.00
2017-08-05T00:13:52.069Z,4.10
2017-08-05T00:13:56.312Z,4.77
2017-08-05T00:14:00.558Z,5.05
2017-08-05T00:14:04.788Z,5.10
2017-08-05T00:14:09.789Z,5.23
2017-08-05T00:14:14.067Z,5.40
2017-08-05T00:14:18.311Z,5.45
2017-08-05T00:14:23.335Z,5.25
2017-08-05T00:14:27.581Z,5.20
2017-08-05T00:14:31.927Z,5.10
2017-08-05T00:14:36.937Z,5.87
2017-08-05T00:15:02.976Z,2.10
2017-08-05T00:15:07.209Z,3.15
2017-08-05T00:15:11.455Z,3.63
2017-08-05T00:15:16.470Z,3.30
2017-08-05T00:15:21.605Z,3.00
2017-08-05T00:15:26.668Z,2.90
2017-08-05T00:15:30.905Z,2.90
2017-08-05T00:15:35.153Z,3.20
2017-08-05T00:15:39.381Z,3.35
2017-08-05T00:15:43.646Z,3.20
2017-08-05T00:15:47.919Z,3.30
2017-08-05T00:15:52.930Z,3.23
2017-08-05T00:15:57.939Z,3.13
2017-08-05T00:16:02.223Z,3.10
2017-08-05T00:16:06.463Z,3.35
2017-08-05T00:16:10.701Z,3.50
2017-08-05T00:16:14.955Z,3.50
2017-08-05T00:16:19.963Z,3.63
2017-08-05T00:16:24.961Z,3.87
2017-08-05T00:16:29.240Z,3.97
2017-08-05T00:16:33.466Z,4.20
2017-08-05T00:16:37.723Z,4.20
2017-08-05T00:16:41.990Z,4.20
2017-08-05T00:16:47.001Z,4.20
2017-08-05T00:16:51.291Z,4.73
2017-08-05T00:16:55.541Z,5.00
2017-08-05T00:16:59.780Z,5.10
2017-08-05T00:17:04.051Z,5.33
2017-08-05T00:17:08.279Z,5.30
2017-08-05T00:17:12.560Z,5.40
2017-08-05T00:17:16.798Z,5.47
2017-08-05T00:17:21.149Z,5.30
2017-08-05T00:17:25.405Z,5.20
2017-08-05T00:17:30.413Z,5.35
2017-08-05T00:17:34.661Z,5.33
2017-08-05T00:17:38.996Z,5.40
2017-08-05T00:17:43.221Z,5.55
2017-08-05T00:17:48.221Z,5.55
2017-08-05T00:17:52.538Z,5.13
2017-08-05T00:17:56.771Z,4.93
2017-08-05T00:18:01.015Z,4.80
2017-08-05T00:18:05.261Z,4.75
2017-08-05T00:18:09.551Z,4.30
2017-08-05T00:18:14.545Z,4.33
2017-08-05T00:18:18.791Z,4.43
2017-08-05T00:18:23.035Z,5.10
2017-08-05T00:18:27.257Z,5.25
2017-08-05T00:18:31.514Z,5.05
2017-08-05T00:18:35.767Z,4.83
2017-08-05T00:18:40.796Z,5.15
2017-08-05T00:18:45.025Z,5.07
2017-08-05T00:18:49.266Z,5.00
2017-08-05T00:18:53.519Z,4.90
2017-08-05T00:18:57.765Z,4.80
2017-08-05T00:19:01.995Z,4.65
2017-08-05T00:19:06.250Z,4.75
2017-08-05T00:19:10.493Z,4.97
2017-08-05T00:19:15.501Z,4.80
2017-08-05T00:19:20.518Z,4.73
2017-08-05T00:19:25.535Z,4.57
2017-08-05T00:19:30.553Z,4.37
2017-08-05T00:19:35.598Z,4.67
2017-08-05T00:19:39.858Z,4.77
2017-08-05T00:19:44.086Z,4.60
2017-08-05T00:19:48.329Z,5.00
2017-08-05T00:19:52.618Z,5.15
2017-08-05T00:19:56.901Z,5.40
2017-08-05T00:20:01.140Z,5.45
2017-08-05T00:20:05.417Z,5.90
2017-08-05T00:20:09.680Z,5.85
2017-08-05T00:20:13.947Z,5.80
2017-08-05T00:20:18.185Z,5.80
2017-08-05T00:20:22.429Z,5.57
2017-08-05T00:20:26.685Z,5.95
2017-08-05T00:20:30.975Z,6.00
2017-08-05T00:20:35.220Z,5.70
2017-08-05T00:20:39.496Z,5.50
2017-08-05T00:20:43.779Z,5.80
2017-08-05T00:20:48.771Z,5.55
2017-08-05T00:20:53.025Z,5.40
2017-08-05T00:20:57.261Z,5.20
2017-08-05T00:21:01.515Z,5.00
2017-08-05T00:21:05.819Z,4.35
2017-08-05T00:21:10.079Z,4.10
2017-08-05T00:21:14.329Z,4.20
2017-08-05T00:21:18.561Z,4.40
2017-08-05T00:21:22.781Z,3.95
2017-08-05T00:21:27.024Z,4.40
2017-08-05T00:21:31.270Z,4.85
2017-08-05T00:21:35.528Z,4.95
2017-08-05T00:21:39.777Z,5.45
2017-08-05T00:21:44.009Z,5.30
2017-08-05T00:21:48.306Z,5.20
2017-08-05T00:21:53.340Z,5.30
2017-08-05T00:21:57.585Z,5.23
2017-08-05T00:22:01.830Z,6.05
2017-08-05T00:22:06.091Z,6.30
2017-08-05T00:22:10.342Z,6.40
2017-08-05T00:22:14.581Z,6.35
2017-08-05T00:22:18.803Z,6.30
2017-08-05T00:22:23.798Z,6.50
2017-08-05T00:22:28.062Z,5.43
2017-08-05T00:22:32.281Z,5.15
2017-08-05T00:22:36.567Z,5.00
2017-08-05T00:22:40.836Z,4.37
2017-08-05T00:22:45.836Z,4.55
2017-08-05T00:22:50.083Z,4.70
2017-08-05T00:22:54.383Z,5.25
2017-08-05T00:22:58.612Z,5.30
2017-08-05T00:23:02.874Z,4.57
2017-08-05T00:23:07.113Z,4.30
2017-08-05T00:23:11.397Z,4.35
2017-08-05T00:23:15.630Z,4.65
2017-08-05T00:23:19.890Z,4.73
2017-08-05T00:23:24.140Z,4.60
2017-08-05T00:23:28.389Z,4.90
2017-08-05T00:23:32.641Z,5.20
2017-08-05T00:23:37.716Z,5.50
2017-08-05T00:23:41.956Z,5.33
2017-08-05T00:23:46.228Z,5.60
2017-08-05T00:23:50.466Z,5.55
2017-08-05T00:23:54.705Z,5.10
2017-08-05T00:23:58.956Z,5.15
2017-08-05T00:24:03.257Z,5.40
2017-08-05T00:24:07.516Z,5.40
2017-08-05T00:24:11.780Z,5.40
2017-08-05T00:24:16.777Z,5.05
2017-08-05T00:24:21.810Z,4.90
2017-08-05T00:24:26.835Z,4.67
2017-08-05T00:24:31.045Z,4.43
2017-08-05T00:24:35.273Z,3.80
2017-08-05T00:24:39.542Z,3.70
2017-08-05T00:24:43.783Z,3.70
2017-08-05T00:24:48.060Z,3.50
2017-08-05T00:24:52.270Z,3.30
2017-08-05T00:24:56.526Z,3.30
2017-08-05T00:25:01.547Z,3.10
2017-08-05T00:25:06.548Z,3.23
2017-08-05T00:25:11.549Z,3.33
2017-08-05T00:25:15.803Z,3.63
2017-08-05T00:25:20.041Z,3.65
2017-08-05T00:25:24.297Z,3.60
2017-08-05T00:25:28.527Z,3.70
2017-08-05T00:25:32.759Z,3.95
2017-08-05T00:25:37.445Z,3.90
2017-08-05T00:25:42.489Z,3.93
2017-08-05T00:25:47.539Z,3.87
2017-08-05T00:25:51.791Z,4.30
2017-08-05T00:25:56.025Z,4.20
2017-08-05T00:26:01.035Z,4.10
2017-08-05T00:26:05.288Z,4.03
2017-08-05T00:26:09.539Z,4.45
2017-08-05T00:26:13.787Z,4.45
2017-08-05T00:26:18.057Z,4.45
2017-08-05T00:26:23.143Z,5.37
2017-08-05T00:26:27.391Z,5.63
2017-08-05T00:26:31.672Z,5.45
2017-08-05T00:26:35.935Z,5.40
2017-08-05T00:26:40.187Z,5.57
2017-08-05T00:26:44.421Z,5.80
2017-08-05T00:26:48.657Z,5.00
2017-08-05T00:26:53.673Z,5.05
2017-08-05T00:26:57.909Z,5.10
2017-08-05T00:27:02.163Z,5.03
2017-08-05T00:27:06.484Z,4.95
2017-08-05T00:27:10.701Z,4.75
2017-08-05T00:27:14.960Z,4.80
2017-08-05T00:27:19.205Z,4.53
2017-08-05T00:27:23.444Z,3.65
2017-08-05T00:27:27.687Z,3.60
2017-08-05T00:27:31.932Z,3.87
2017-08-05T00:27:36.227Z,3.90
2017-08-05T00:27:40.521Z,3.65
2017-08-05T00:27:44.730Z,3.60
2017-08-05T00:27:48.991Z,3.87
2017-08-05T00:27:54.004Z,3.80
2017-08-05T00:27:59.030Z,3.80
2017-08-05T00:28:03.265Z,3.80
2017-08-05T00:28:07.544Z,3.95
2017-08-05T00:28:11.805Z,3.73
2017-08-05T00:28:16.040Z,3.85
2017-08-05T00:28:20.296Z,3.80
2017-08-05T00:28:24.529Z,4.15
2017-08-05T00:28:28.781Z,4.40
2017-08-05T00:28:33.017Z,4.30
2017-08-05T00:28:38.039Z,4.40
2017-08-05T00:28:43.179Z,4.67
2017-08-05T00:28:47.412Z,4.53
2017-08-05T00:28:51.694Z,4.75
2017-08-05T00:28:55.951Z,5.47
2017-08-05T00:29:00.244Z,5.70
2017-08-05T00:29:04.559Z,5.85
2017-08-05T00:29:08.791Z,5.67
2017-08-05T00:29:13.017Z,5.40
2017-08-05T00:29:17.257Z,5.20
2017-08-05T00:29:22.309Z,5.20
2017-08-05T00:29:26.562Z,5.07
2017-08-05T00:29:30.830Z,5.60
2017-08-05T00:29:35.069Z,5.50
2017-08-05T00:29:40.096Z,5.45
2017-08-05T00:29:45.196Z,5.07
2017-08-05T00:29:49.425Z,5.13
2017-08-05T00:29:53.684Z,4.83
2017-08-05T00:29:57.913Z,4.00
2017-08-05T00:30:02.912Z,4.00
2017-08-05T00:30:07.155Z,3.80
2017-08-05T00:30:11.385Z,3.90
2017-08-05T00:30:15.633Z,4.20
2017-08-05T00:30:19.884Z,4.10
2017-08-05T00:30:24.129Z,4.00
2017-08-05T00:30:28.353Z,4.20
2017-08-05T00:30:32.620Z,4.17
2017-08-05T00:30:37.660Z,4.20
2017-08-05T00:30:42.665Z,4.27
2017-08-05T00:30:47.748Z,4.30
2017-08-05T00:30:51.991Z,4.10
2017-08-05T00:30:57.003Z,4.25
2017-08-05T00:31:02.021Z,4.30
2017-08-05T00:31:06.307Z,4.32
2017-08-05T00:31:10.573Z,4.35
2017-08-05T00:31:14.815Z,4.10
2017-08-05T00:31:19.036Z,4.10
2017-08-05T00:31:23.273Z,3.93
2017-08-05T00:31:27.520Z,3.50
2017-08-05T00:31:31.740Z,3.35
2017-08-05T00:31:36.051Z,3.90
2017-08-05T00:31:40.294Z,4.00
2017-08-05T00:31:44.540Z,4.00
2017-08-05T00:31:48.822Z,4.00
2017-08-05T00:31:53.046Z,3.90
2017-08-05T00:31:57.306Z,3.83
2017-08-05T00:32:01.539Z,3.90
2017-08-05T00:32:05.811Z,3.80
2017-08-05T00:32:10.031Z,3.95
2017-08-05T00:32:15.022Z,4.33
2017-08-05T00:32:19.280Z,4.30
2017-08-05T00:32:23.526Z,4.30
2017-08-05T00:32:27.761Z,4.35
2017-08-05T00:32:32.053Z,4.10
2017-08-05T00:32:37.108Z,3.67
2017-08-05T00:32:41.338Z,3.73
2017-08-05T00:32:45.568Z,4.25
2017-08-05T00:32:49.882Z,4.35
2017-08-05T00:32:54.872Z,5.00
2017-08-05T00:32:59.895Z,5.17
2017-08-05T00:33:04.915Z,5.27
2017-08-05T00:33:09.183Z,5.50
2017-08-05T00:33:13.432Z,5.25
2017-08-05T00:33:17.726Z,5.10
2017-08-05T00:33:21.983Z,5.40
2017-08-05T00:33:26.223Z,5.50
2017-08-05T00:33:31.217Z,5.55
2017-08-05T00:33:35.452Z,5.47
2017-08-05T00:33:39.690Z,5.20
2017-08-05T00:33:43.921Z,5.00
2017-08-05T00:33:48.222Z,4.80
2017-08-05T00:33:52.457Z,4.55
2017-08-05T00:33:56.694Z,4.50
2017-08-05T00:34:00.929Z,4.40
2017-08-05T00:34:05.179Z,4.35
2017-08-05T00:34:09.439Z,4.20
2017-08-05T00:34:14.094Z,4.10
2017-08-05T00:34:18.340Z,4.20
2017-08-05T00:34:23.350Z,4.40
2017-08-05T00:34:27.598Z,4.13
2017-08-05T00:34:31.837Z,4.27
2017-08-05T00:34:36.096Z,4.80
2017-08-05T00:34:40.371Z,4.80
2017-08-05T00:34:44.628Z,4.77
2017-08-05T00:34:48.866Z,4.60
2017-08-05T00:34:53.913Z,5.05
2017-08-05T00:34:58.163Z,4.93
2017-08-05T00:35:02.415Z,5.10
2017-08-05T00:35:06.666Z,4.93
2017-08-05T00:35:10.907Z,5.00
2017-08-05T00:35:15.146Z,5.05
2017-08-05T00:35:19.382Z,4.85
2017-08-05T00:35:24.401Z,4.70
2017-08-05T00:35:29.423Z,4.43
2017-08-05T00:35:34.444Z,4.00
2017-08-05T00:35:38.689Z,4.17
2017-08-05T00:35:42.936Z,4.20
2017-08-05T00:35:47.204Z,4.15
2017-08-05T00:35:51.475Z,3.83
2017-08-05T00:35:55.745Z,3.50
2017-08-05T00:36:00.740Z,3.50
2017-08-05T00:36:04.987Z,3.70
2017-08-05T00:36:09.275Z,4.00
2017-08-05T00:36:14.245Z,4.07
2017-08-05T00:36:18.487Z,4.60
2017-08-05T00:36:22.725Z,4.75
2017-08-05T00:36:26.958Z,5.55
2017-08-05T00:36:31.971Z,5.75
2017-08-05T00:36:36.210Z,5.70
2017-08-05T00:36:40.467Z,5.37
2017-08-05T00:36:44.718Z,5.45
2017-08-05T00:36:48.953Z,5.45
2017-08-05T00:36:53.220Z,5.30
2017-08-05T00:36:57.478Z,5.30
2017-08-05T00:37:01.706Z,5.25
2017-08-05T00:37:05.950Z,4.85
2017-08-05T00:37:10.204Z,4.70
2017-08-05T00:37:14.441Z,4.75
2017-08-05T00:37:18.698Z,4.80
2017-08-05T00:37:23.692Z,4.65
2017-08-05T00:37:27.928Z,3.73
2017-08-05T00:37:32.165Z,3.63
2017-08-05T00:37:36.440Z,3.70
2017-08-05T00:37:40.696Z,5.00
2017-08-05T00:37:44.963Z,5.65
2017-08-05T00:37:49.195Z,5.83
2017-08-05T00:37:53.460Z,6.15
2017-08-05T00:37:57.716Z,6.35
2017-08-05T00:38:02.705Z,6.50
2017-08-05T00:38:07.025Z,6.73
2017-08-05T00:38:12.013Z,7.10
2017-08-05T00:38:16.245Z,6.73
2017-08-05T00:38:21.280Z,6.50
2017-08-05T00:38:26.331Z,6.50
2017-08-05T00:38:30.602Z,6.57
2017-08-05T00:38:34.838Z,6.55
2017-08-05T00:38:39.095Z,5.50
2017-08-05T00:38:43.354Z,4.45
2017-08-05T00:38:47.611Z,4.20
2017-08-05T00:38:51.854Z,3.97
2017-08-05T00:38:56.134Z,3.75
2017-08-05T00:39:00.968Z,3.95
2017-08-05T00:39:05.203Z,4.20
2017-08-05T00:39:10.216Z,3.95
2017-08-05T00:39:15.252Z,3.80
2017-08-05T00:39:19.491Z,3.70
2017-08-05T00:39:23.779Z,3.70
2017-08-05T00:39:28.013Z,3.80
2017-08-05T00:39:32.277Z,3.80
2017-08-05T00:39:36.554Z,3.95
2017-08-05T00:39:40.805Z,4.33
2017-08-05T00:39:45.844Z,4.55
2017-08-05T00:39:50.888Z,4.97
2017-08-05T00:39:55.143Z,5.20
2017-08-05T00:39:59.369Z,5.15
2017-08-05T00:40:04.411Z,4.70
2017-08-05T00:40:08.641Z,4.50
2017-08-05T00:40:12.879Z,4.50
2017-08-05T00:40:17.905Z,4.60
2017-08-05T00:40:24.805Z,4.60
2017-08-05T00:40:32.909Z,4.67
2017-08-05T00:40:37.152Z,5.05
2017-08-05T00:40:42.159Z,4.80
2017-08-05T00:40:47.195Z,4.50
2017-08-05T00:40:52.215Z,3.93
2017-08-05T00:40:57.262Z,3.90
2017-08-05T00:41:01.499Z,4.23
2017-08-05T00:41:05.743Z,5.05
2017-08-05T00:41:10.764Z,5.30
2017-08-05T00:41:15.027Z,5.30
2017-08-05T00:41:19.251Z,5.30
2017-08-05T00:41:24.276Z,5.50
2017-08-05T00:41:28.526Z,5.50
2017-08-05T00:41:32.757Z,4.90
2017-08-05T00:41:37.826Z,4.70
2017-08-05T00:41:42.037Z,4.90
2017-08-05T00:41:46.307Z,4.80
2017-08-05T00:41:50.551Z,4.90
2017-08-05T00:41:54.828Z,4.80
2017-08-05T00:41:59.063Z,4.30
2017-08-05T00:42:03.285Z,3.80
2017-08-05T00:42:08.302Z,3.35
2017-08-05T00:42:13.339Z,3.17
2017-08-05T00:42:17.566Z,3.00
2017-08-05T00:42:21.847Z,3.20
2017-08-05T00:42:26.155Z,3.40
2017-08-05T00:42:30.376Z,3.50
2017-08-05T00:42:34.609Z,3.45
2017-08-05T00:42:38.850Z,3.30
2017-08-05T00:42:43.097Z,3.25
2017-08-05T00:42:47.386Z,3.40
2017-08-05T00:42:51.626Z,3.50
2017-08-05T00:42:56.617Z,3.65
2017-08-05T00:43:00.961Z,3.87
2017-08-05T00:43:05.212Z,3.70
2017-08-05T00:43:09.467Z,3.80
2017-08-05T00:43:13.707Z,3.90
2017-08-05T00:43:17.956Z,3.95
2017-08-05T00:43:22.963Z,3.60
2017-08-05T00:43:28.012Z,3.60
2017-08-05T00:43:32.237Z,4.00
2017-08-05T00:43:36.482Z,5.50
2017-08-05T00:43:41.530Z,5.65
2017-08-05T00:43:45.733Z,5.97
2017-08-05T00:43:49.989Z,6.10
2017-08-05T00:43:55.015Z,6.10
2017-08-05T00:44:00.028Z,6.20
2017-08-05T00:44:05.044Z,6.20
2017-08-05T00:44:10.083Z,6.20
2017-08-05T00:44:15.098Z,6.10
2017-08-05T00:44:19.329Z,6.43
2017-08-05T00:44:23.605Z,6.55
2017-08-05T00:44:27.847Z,6.37
2017-08-05T00:44:32.099Z,6.00
2017-08-05T00:44:36.342Z,4.50
2017-08-05T00:44:40.573Z,4.40
2017-08-05T00:44:44.828Z,5.03
2017-08-05T00:44:49.050Z,4.80
2017-08-05T00:44:53.301Z,4.80
2017-08-05T00:44:57.596Z,4.60
2017-08-05T00:45:01.834Z,4.50
2017-08-05T00:45:06.092Z,4.50
2017-08-05T00:45:10.331Z,4.45
2017-08-05T00:45:14.589Z,4.70
2017-08-05T00:45:18.845Z,4.40
2017-08-05T00:45:23.105Z,4.20
2017-08-05T00:45:27.348Z,4.30
2017-08-05T00:45:31.618Z,4.30
2017-08-05T00:45:35.857Z,4.40
2017-08-05T00:45:40.093Z,4.55
2017-08-05T00:45:44.340Z,3.90
2017-08-05T00:45:48.618Z,3.90
2017-08-05T00:45:52.871Z,4.00
2017-08-05T00:45:57.131Z,4.00
2017-08-05T00:46:01.348Z,4.00
2017-08-05T00:46:05.598Z,3.90
2017-08-05T00:46:09.826Z,3.85
2017-08-05T00:46:14.076Z,3.55
2017-08-05T00:46:18.304Z,3.50
2017-08-05T00:46:22.587Z,3.50
2017-08-05T00:46:26.835Z,3.30
2017-08-05T00:46:31.084Z,3.25
2017-08-05T00:46:35.305Z,3.20
2017-08-05T00:46:39.547Z,3.37
2017-08-05T00:46:43.785Z,3.45
2017-08-05T00:46:48.024Z,3.95
2017-08-05T00:46:52.285Z,4.05
2017-08-05T00:46:56.582Z,4.50
2017-08-05T00:47:00.798Z,4.85
2017-08-05T00:47:05.042Z,5.00
2017-08-05T00:47:09.274Z,5.13
2017-08-05T00:47:13.523Z,5.35
2017-08-05T00:47:17.829Z,5.35
2017-08-05T00:47:22.078Z,5.40
2017-08-05T00:47:26.328Z,5.60
2017-08-05T00:47:30.562Z,5.70
2017-08-05T00:47:34.797Z,5.85
2017-08-05T00:47:39.044Z,5.60
2017-08-05T00:47:43.299Z,5.20
2017-08-05T00:47:47.542Z,4.40
2017-08-05T00:47:51.773Z,4.25
2017-08-05T00:47:56.008Z,3.85
2017-08-05T00:48:00.241Z,3.43
2017-08-05T00:48:04.705Z,3.30
2017-08-05T00:48:08.991Z,3.20
2017-08-05T00:48:13.230Z,3.50
2017-08-05T00:48:17.453Z,3.50
2017-08-05T00:48:21.704Z,3.45
2017-08-05T00:48:25.947Z,3.50
2017-08-05T00:48:30.186Z,3.70
2017-08-05T00:48:34.441Z,3.50
2017-08-05T00:48:38.668Z,3.70
2017-08-05T00:48:42.901Z,4.20
2017-08-05T00:48:47.174Z,4.43
2017-08-05T00:48:51.400Z,4.60
2017-08-05T00:48:55.710Z,4.60
2017-08-05T00:48:59.945Z,4.40
2017-08-05T00:49:04.193Z,4.30
2017-08-05T00:49:08.493Z,4.20
2017-08-05T00:49:12.739Z,3.85
2017-08-05T00:49:16.991Z,4.20
2017-08-05T00:49:21.274Z,4.45
2017-08-05T00:49:25.484Z,4.60
2017-08-05T00:49:29.743Z,5.00
2017-08-05T00:49:34.012Z,5.30
2017-08-05T00:49:38.242Z,5.35
2017-08-05T00:49:42.947Z,5.50
2017-08-05T00:49:47.249Z,5.40
2017-08-05T00:49:51.489Z,5.25
2017-08-05T00:49:55.738Z,5.20
2017-08-05T00:49:59.981Z,5.30
2017-08-05T00:50:04.232Z,5.45
2017-08-05T00:50:08.462Z,5.60
2017-08-05T00:50:12.697Z,5.60
2017-08-05T00:50:16.945Z,5.45
2017-08-05T00:50:21.182Z,5.35
2017-08-05T00:50:25.410Z,5.45
2017-08-05T00:50:29.651Z,4.93
2017-08-05T00:50:33.917Z,4.70
2017-08-05T00:50:38.202Z,6.00
2017-08-05T00:50:42.451Z,5.70
2017-08-05T00:50:46.712Z,5.87
2017-08-05T00:50:51.014Z,5.95
2017-08-05T00:50:55.242Z,5.90
2017-08-05T00:50:59.478Z,6.00
2017-08-05T00:51:03.737Z,6.00
2017-08-05T00:51:07.969Z,5.95
2017-08-05T00:51:12.219Z,5.75
2017-08-05T00:51:16.471Z,5.70
2017-08-05T00:51:20.727Z,6.23
2017-08-05T00:51:24.947Z,6.00
2017-08-05T00:51:29.191Z,6.30
2017-08-05T00:51:33.442Z,6.30
2017-08-05T00:51:37.686Z,5.10
2017-08-05T00:51:41.932Z,5.10
2017-08-05T00:51:46.212Z,5.00
2017-08-05T00:51:50.490Z,4.90
2017-08-05T00:51:54.732Z,5.00
2017-08-05T00:51:58.973Z,4.85
2017-08-05T00:52:03.237Z,4.70
2017-08-05T00:52:07.523Z,4.73
2017-08-05T00:52:11.765Z,4.85
2017-08-05T00:52:16.023Z,4.65
2017-08-05T00:52:20.281Z,4.00
2017-08-05T00:52:24.497Z,3.77
2017-08-05T00:52:28.728Z,3.50
2017-08-05T00:52:32.961Z,3.35
2017-08-05T00:52:37.212Z,3.15
2017-08-05T00:52:41.553Z,2.87
2017-08-05T00:52:45.802Z,2.90
2017-08-05T00:52:50.026Z,2.90
2017-08-05T00:52:54.296Z,2.97
2017-08-05T00:52:58.520Z,3.00
2017-08-05T00:53:02.769Z,3.65
2017-08-05T00:53:07.006Z,4.10
2017-08-05T00:53:11.259Z,4.27
2017-08-05T00:53:15.495Z,4.35
2017-08-05T00:53:19.731Z,4.30
2017-08-05T00:53:23.988Z,4.20
2017-08-05T00:53:28.231Z,4.17
2017-08-05T00:53:32.461Z,4.90
2017-08-05T00:53:36.733Z,4.95
2017-08-05T00:53:41.015Z,6.20
2017-08-05T00:53:45.246Z,6.13
2017-08-05T00:53:49.487Z,6.10
2017-08-05T00:53:53.748Z,5.90
2017-08-05T00:53:57.977Z,5.97
2017-08-05T00:54:02.236Z,5.50
2017-08-05T00:54:06.476Z,4.90
2017-08-05T00:54:10.744Z,4.70
2017-08-05T00:54:14.967Z,4.70
2017-08-05T00:54:19.208Z,4.85
2017-08-05T00:54:23.454Z,5.20
2017-08-05T00:54:27.691Z,5.25
2017-08-05T00:54:31.950Z,4.87
2017-08-05T00:54:36.169Z,4.60
2017-08-05T00:54:40.406Z,3.45
2017-08-05T00:54:44.638Z,3.40
2017-08-05T00:54:48.866Z,3.40
2017-08-05T00:54:53.211Z,3.45
2017-08-05T00:54:57.463Z,3.40
2017-08-05T00:55:01.708Z,3.60
2017-08-05T00:55:05.975Z,3.80
2017-08-05T00:55:10.203Z,3.80
2017-08-05T00:55:14.438Z,3.70
2017-08-05T00:55:18.668Z,3.60
2017-08-05T00:55:22.932Z,3.60
2017-08-05T00:55:27.158Z,3.55
2017-08-05T00:55:31.418Z,3.15
2017-08-05T00:55:35.661Z,3.20
2017-08-05T00:55:39.923Z,3.55
2017-08-05T00:55:44.172Z,3.55
2017-08-05T00:55:48.413Z,3.60
2017-08-05T00:55:52.719Z,3.77
2017-08-05T00:55:56.958Z,3.95
2017-08-05T00:56:01.196Z,3.65
2017-08-05T00:56:05.445Z,3.50
2017-08-05T00:56:09.700Z,3.40
2017-08-05T00:56:13.972Z,3.40
2017-08-05T00:56:18.212Z,3.50
2017-08-05T00:56:22.473Z,3.30
2017-08-05T00:56:26.717Z,3.30
2017-08-05T00:56:30.967Z,3.30
2017-08-05T00:56:35.198Z,3.25
2017-08-05T00:56:39.462Z,2.83
2017-08-05T00:56:43.769Z,2.95
2017-08-05T00:56:47.997Z,3.00
2017-08-05T00:56:52.221Z,2.80
2017-08-05T00:56:56.453Z,2.63
2017-08-05T00:57:00.702Z,2.85
2017-08-05T00:57:04.945Z,3.00
2017-08-05T00:57:09.184Z,3.00
2017-08-05T00:57:13.418Z,3.07
2017-08-05T00:57:17.741Z,3.30
2017-08-05T00:57:21.992Z,3.60
2017-08-05T00:57:26.242Z,3.65
2017-08-05T00:57:30.492Z,3.70
2017-08-05T00:57:34.751Z,3.70
2017-08-05T00:57:38.982Z,3.70
2017-08-05T00:57:43.234Z,3.70
2017-08-05T00:57:47.501Z,3.70
2017-08-05T00:57:51.820Z,4.95
2017-08-05T00:57:56.105Z,4.95
2017-08-05T00:58:00.346Z,4.90
2017-08-05T00:58:04.583Z,5.10
2017-08-05T00:58:08.888Z,5.30
2017-08-05T00:58:13.130Z,5.40
2017-08-05T00:58:17.379Z,5.60
2017-08-05T00:58:21.598Z,5.35
2017-08-05T00:58:25.910Z,5.50
2017-08-05T00:58:30.144Z,5.40
2017-08-05T00:58:34.391Z,5.50
2017-08-05T00:58:38.614Z,5.40
2017-08-05T00:58:42.859Z,5.25
2017-08-05T00:58:47.085Z,5.10
2017-08-05T00:58:51.328Z,3.80
2017-08-05T00:58:55.574Z,4.00